Aviation Digital Data Service (ADDS)

Output produced by METARs form (0759 UTC 28 May 2015)
found at http://aviationweather.gov/adds/metars/
 
KORH 280536Z 2806/2906 21011KT P6SM BKN008 
     FM281300 23009KT P6SM BKN040 
     FM281800 22012G22KT P6SM BKN045 
     FM282000 23011G22KT P6SM -SHRA BKN045 
     FM290000 27007KT P6SM SCT045 
     FM290200 31006KT P6SM FEW045